createdAt,value
2022-11-05T00:01:00.970Z,9.30
2022-11-05T00:03:46.452Z,9.20
2022-11-05T00:06:31.824Z,9.20
2022-11-05T00:09:17.281Z,9.10
2022-11-05T00:12:04.157Z,9.20
2022-11-05T00:14:49.773Z,9.20
2022-11-05T00:17:17.917Z,9.20
2022-11-05T00:19:46.201Z,9.20
2022-11-05T00:22:31.769Z,9.20
2022-11-05T00:25:22.452Z,9.20
2022-11-05T00:27:53.603Z,9.20
2022-11-05T00:30:23.791Z,9.30
2022-11-05T00:32:53.722Z,9.20
2022-11-05T00:35:23.667Z,9.30
2022-11-05T00:37:54.355Z,9.20
2022-11-05T00:40:22.742Z,9.20
2022-11-05T00:43:10.041Z,9.20
2022-11-05T00:45:38.899Z,9.20
2022-11-05T00:48:24.798Z,9.20
2022-11-05T00:50:53.142Z,9.20
2022-11-05T00:53:22.266Z,9.20
2022-11-05T00:55:54.653Z,9.20
2022-11-05T00:58:27.273Z,9.20
2022-11-05T01:00:57.321Z,9.20
2022-11-05T01:03:29.562Z,9.20
2022-11-05T01:05:59.317Z,9.20
2022-11-05T01:08:29.026Z,9.20
2022-11-05T01:10:59.085Z,9.20
2022-11-05T01:13:31.209Z,9.10
2022-11-05T01:15:59.550Z,9.20
2022-11-05T01:18:27.767Z,9.10
2022-11-05T01:20:56.046Z,9.10
2022-11-05T01:23:24.252Z,9.00
2022-11-05T01:25:52.532Z,9.00
2022-11-05T01:28:20.872Z,9.00
2022-11-05T01:30:58.719Z,8.90
2022-11-05T01:33:26.979Z,8.90
2022-11-05T01:35:55.359Z,8.90
2022-11-05T01:38:23.616Z,8.90
2022-11-05T01:40:51.858Z,8.90
2022-11-05T01:43:21.924Z,8.90
2022-11-05T01:46:01.075Z,8.90
2022-11-05T01:48:34.174Z,8.90
2022-11-05T01:51:06.354Z,8.90
2022-11-05T01:53:38.602Z,8.90
2022-11-05T01:56:23.962Z,8.90
2022-11-05T01:59:04.264Z,8.80
2022-11-05T02:01:37.152Z,8.90
2022-11-05T02:04:17.681Z,8.90
2022-11-05T02:06:47.407Z,8.90
2022-11-05T02:09:21.809Z,8.90
2022-11-05T02:11:50.981Z,8.90
2022-11-05T02:14:19.430Z,8.90
2022-11-05T02:16:53.097Z,8.90
2022-11-05T02:19:56.785Z,8.90
2022-11-05T02:22:57.671Z,8.90
2022-11-05T02:25:58.700Z,8.90
2022-11-05T02:28:55.882Z,8.90
2022-11-05T02:31:34.102Z,8.90
2022-11-05T02:34:08.967Z,8.90
2022-11-05T02:36:46.530Z,8.90
2022-11-05T02:39:27.838Z,8.80
2022-11-05T02:42:05.436Z,8.80
2022-11-05T02:44:47.652Z,8.80
2022-11-05T02:47:27.950Z,8.80
2022-11-05T02:50:04.122Z,8.70
2022-11-05T02:52:39.121Z,8.70
2022-11-05T02:55:17.770Z,8.70
2022-11-05T02:57:48.456Z,8.60
2022-11-05T03:00:42.734Z,8.70
2022-11-05T03:03:20.401Z,8.70
2022-11-05T03:06:00.119Z,8.70
2022-11-05T03:08:41.824Z,8.70
2022-11-05T03:11:16.806Z,8.70
2022-11-05T03:14:18.699Z,8.60
2022-11-05T03:16:52.256Z,8.60
2022-11-05T03:19:28.030Z,8.50
2022-11-05T03:22:02.609Z,8.50
2022-11-05T03:24:37.876Z,8.50
2022-11-05T03:27:10.471Z,8.50
2022-11-05T03:29:43.809Z,8.50
2022-11-05T03:32:13.736Z,8.50
2022-11-05T03:34:47.066Z,8.50
2022-11-05T03:37:18.083Z,8.50
2022-11-05T03:39:51.907Z,8.50
2022-11-05T03:42:22.620Z,8.50
2022-11-05T03:44:54.629Z,8.50
2022-11-05T03:47:27.470Z,8.50
2022-11-05T03:50:04.061Z,8.70
2022-11-05T03:52:38.738Z,8.50
2022-11-05T03:55:07.970Z,8.50
2022-11-05T03:57:39.872Z,8.40
2022-11-05T04:00:09.919Z,8.40
2022-11-05T04:02:41.042Z,8.40
2022-11-05T04:05:10.848Z,8.30
2022-11-05T04:07:56.232Z,8.30
2022-11-05T04:10:41.692Z,8.20
2022-11-05T04:13:26.796Z,8.20
2022-11-05T04:16:13.878Z,8.20
2022-11-05T04:18:42.797Z,8.10
2022-11-05T04:21:30.110Z,8.10
2022-11-05T04:24:10.610Z,8.10
2022-11-05T04:26:40.048Z,8.10
2022-11-05T04:29:26.518Z,8.10
2022-11-05T04:31:55.271Z,8.10
2022-11-05T04:34:29.490Z,8.10
2022-11-05T04:36:59.510Z,8.10
2022-11-05T04:39:27.699Z,8.10
2022-11-05T04:41:55.898Z,8.10
2022-11-05T04:44:24.076Z,8.10
2022-11-05T04:46:52.264Z,8.00
2022-11-05T04:49:20.521Z,8.00
2022-11-05T04:51:48.675Z,8.00
2022-11-05T04:54:18.223Z,8.00
2022-11-05T04:56:46.399Z,7.90
2022-11-05T04:59:14.668Z,7.90
2022-11-05T05:01:43.000Z,7.90
2022-11-05T05:04:11.149Z,7.90
2022-11-05T05:06:39.402Z,7.80
2022-11-05T05:09:07.556Z,7.80
2022-11-05T05:11:37.112Z,7.80
2022-11-05T05:14:05.418Z,7.70
2022-11-05T05:16:33.607Z,7.70
2022-11-05T05:19:01.767Z,7.70
2022-11-05T05:21:41.600Z,7.60
2022-11-05T05:24:11.482Z,7.60
2022-11-05T05:26:43.139Z,7.60
2022-11-05T05:29:12.368Z,7.60
2022-11-05T05:31:41.294Z,7.60
2022-11-05T05:34:12.024Z,7.60
2022-11-05T05:36:40.192Z,7.60
2022-11-05T05:39:10.810Z,7.60
2022-11-05T05:41:40.576Z,7.60
2022-11-05T05:44:08.786Z,7.60
2022-11-05T05:46:36.938Z,7.60
2022-11-05T05:49:09.547Z,7.60
2022-11-05T05:51:40.612Z,7.60
2022-11-05T05:54:08.838Z,7.60
2022-11-05T05:56:36.998Z,7.50
2022-11-05T05:59:08.269Z,7.50
2022-11-05T06:01:36.570Z,7.50
2022-11-05T06:04:04.880Z,7.50
2022-11-05T06:06:33.115Z,7.50
2022-11-05T06:09:01.286Z,7.50
2022-11-05T06:11:29.557Z,7.50
2022-11-05T06:13:57.797Z,7.60
2022-11-05T06:16:27.750Z,7.50
2022-11-05T06:18:55.918Z,7.50
2022-11-05T06:21:24.070Z,7.50
2022-11-05T06:23:52.234Z,7.50
2022-11-05T06:26:21.041Z,7.50
2022-11-05T06:28:49.200Z,7.50
2022-11-05T06:31:17.360Z,7.60
2022-11-05T06:33:47.306Z,7.50
2022-11-05T06:36:17.219Z,7.60
2022-11-05T06:38:45.404Z,7.60
2022-11-05T06:41:16.302Z,7.50
2022-11-05T06:43:44.735Z,7.50
2022-11-05T06:46:13.169Z,7.60
2022-11-05T06:48:41.660Z,7.60
2022-11-05T06:51:11.552Z,7.60
2022-11-05T06:53:39.781Z,7.60
2022-11-05T06:56:09.115Z,7.60
2022-11-05T06:58:37.278Z,7.70
2022-11-05T07:01:08.106Z,7.70
2022-11-05T07:03:37.124Z,7.70
2022-11-05T07:06:07.290Z,7.70
2022-11-05T07:08:38.100Z,7.70
2022-11-05T07:11:07.177Z,7.70
2022-11-05T07:13:35.362Z,7.70
2022-11-05T07:16:03.549Z,7.80
2022-11-05T07:18:31.695Z,7.80
2022-11-05T07:21:01.022Z,7.80
2022-11-05T07:45:25.609Z,7.90
2022-11-05T07:47:56.931Z,8.00
2022-11-05T07:50:28.470Z,8.10
2022-11-05T07:53:02.454Z,8.10
2022-11-05T07:55:31.169Z,8.10
2022-11-05T07:58:00.271Z,8.10
2022-11-05T08:00:31.581Z,8.10
2022-11-05T08:03:08.101Z,8.10
2022-11-05T08:05:39.347Z,8.20
2022-11-05T08:08:09.635Z,8.20
2022-11-05T08:10:38.203Z,8.10
2022-11-05T08:13:10.161Z,8.10
2022-11-05T08:15:38.858Z,8.10
2022-11-05T08:18:14.546Z,8.10
2022-11-05T08:20:44.958Z,8.00
2022-11-05T08:23:14.514Z,8.00
2022-11-05T08:25:43.226Z,8.20
2022-11-05T08:28:14.559Z,8.10
2022-11-05T08:30:43.509Z,8.10
2022-11-05T08:33:14.608Z,8.10
2022-11-05T08:35:43.467Z,8.10
2022-11-05T08:38:14.152Z,8.10
2022-11-05T08:40:43.979Z,8.20
2022-11-05T08:43:15.654Z,8.10
2022-11-05T08:45:44.320Z,8.20
2022-11-05T08:48:15.602Z,8.20
2022-11-05T08:50:44.220Z,8.30
2022-11-05T08:53:13.633Z,8.40
2022-11-05T08:55:42.257Z,8.40
2022-11-05T08:58:15.233Z,8.40
2022-11-05T09:00:45.057Z,8.40
2022-11-05T09:03:16.127Z,8.40
2022-11-05T09:05:47.850Z,8.50
2022-11-05T09:08:18.934Z,8.50
2022-11-05T09:10:50.679Z,8.50
2022-11-05T09:13:20.325Z,8.50
2022-11-05T09:15:50.011Z,8.50
2022-11-05T09:18:20.924Z,8.50
2022-11-05T09:20:49.591Z,8.50
2022-11-05T09:23:19.567Z,8.50
2022-11-05T09:25:48.318Z,8.50
2022-11-05T09:28:20.425Z,8.50
2022-11-05T09:30:50.288Z,8.60
2022-11-05T09:33:21.577Z,8.60
2022-11-05T09:35:49.979Z,8.60
2022-11-05T09:38:18.582Z,8.70
2022-11-05T09:40:55.917Z,8.70
2022-11-05T09:43:31.699Z,8.70
2022-11-05T09:46:05.239Z,8.70
2022-11-05T09:49:04.272Z,8.70
2022-11-05T09:51:38.049Z,8.70
2022-11-05T09:54:06.984Z,8.60
2022-11-05T09:56:38.846Z,8.60
2022-11-05T09:59:15.592Z,8.70
2022-11-05T10:01:46.373Z,8.70
2022-11-05T10:04:18.975Z,8.70
2022-11-05T10:06:57.049Z,8.70
2022-11-05T10:09:28.975Z,8.70
2022-11-05T10:12:02.677Z,8.70
2022-11-05T10:14:37.708Z,8.70
2022-11-05T10:17:13.652Z,8.70
2022-11-05T10:19:46.261Z,8.70
2022-11-05T10:22:23.894Z,8.60
2022-11-05T10:24:53.491Z,8.70
2022-11-05T10:27:26.560Z,8.60
2022-11-05T10:29:55.380Z,8.60
2022-11-05T10:32:30.444Z,8.70
2022-11-05T10:35:02.063Z,8.70
2022-11-05T10:37:36.959Z,8.60
2022-11-05T10:40:17.393Z,8.70
2022-11-05T10:42:57.358Z,8.70
2022-11-05T10:45:34.838Z,8.70
2022-11-05T10:48:15.792Z,8.80
2022-11-05T10:50:45.957Z,8.80
2022-11-05T10:53:19.767Z,8.80
2022-11-05T10:55:49.878Z,8.90
2022-11-05T10:58:22.679Z,8.90
2022-11-05T11:01:11.803Z,8.80
2022-11-05T11:03:44.952Z,9.00
2022-11-05T11:06:25.561Z,9.00
2022-11-05T11:08:57.933Z,9.00
2022-11-05T11:11:29.712Z,9.00
2022-11-05T11:14:04.155Z,9.00
2022-11-05T11:16:38.016Z,9.00
2022-11-05T11:19:25.624Z,9.10
2022-11-05T11:22:19.497Z,9.00
2022-11-05T11:24:55.444Z,9.00
2022-11-05T11:27:26.025Z,9.00
2022-11-05T11:29:59.547Z,9.00
2022-11-05T11:32:33.316Z,9.00
2022-11-05T11:35:02.423Z,9.00
2022-11-05T11:37:34.680Z,8.90
2022-11-05T11:40:13.115Z,9.00
2022-11-05T11:42:45.794Z,9.00
2022-11-05T11:45:19.764Z,9.00
2022-11-05T11:47:50.645Z,9.00
2022-11-05T11:50:36.731Z,9.00
2022-11-05T11:53:47.138Z,9.00
2022-11-05T11:56:20.363Z,9.00
2022-11-05T11:58:50.689Z,9.00
2022-11-05T12:01:52.169Z,9.00
2022-11-05T12:04:44.156Z,9.00
2022-11-05T12:07:29.762Z,9.00
2022-11-05T12:10:16.759Z,9.00
2022-11-05T12:12:57.530Z,9.00
2022-11-05T12:15:37.533Z,9.00
2022-11-05T12:18:27.066Z,9.00
2022-11-05T12:21:12.630Z,9.00
2022-11-05T12:24:33.141Z,9.00
2022-11-05T12:27:14.482Z,9.00
2022-11-05T12:30:05.315Z,9.00
2022-11-05T12:33:04.736Z,9.00
2022-11-05T12:35:46.985Z,9.00
2022-11-05T12:38:28.837Z,9.00
2022-11-05T12:41:13.101Z,9.00
2022-11-05T12:43:56.827Z,9.00
2022-11-05T12:46:34.958Z,9.00
2022-11-05T12:49:31.808Z,9.00
2022-11-05T12:52:32.000Z,9.00
2022-11-05T12:55:05.630Z,9.10
2022-11-05T12:57:40.783Z,9.10
2022-11-05T13:00:18.853Z,9.10
2022-11-05T13:03:10.001Z,9.10
2022-11-05T13:05:42.298Z,9.10
2022-11-05T13:08:15.922Z,9.10
2022-11-05T13:10:49.378Z,9.00
2022-11-05T13:13:27.675Z,9.00
2022-11-05T13:15:58.768Z,9.10
2022-11-05T13:18:49.558Z,9.10
2022-11-05T13:21:20.852Z,9.00
2022-11-05T13:23:54.463Z,9.00
2022-11-05T13:26:28.873Z,9.10
2022-11-05T13:29:03.396Z,9.10
2022-11-05T13:31:35.330Z,9.10
2022-11-05T13:34:10.470Z,9.10
2022-11-05T13:37:04.841Z,9.10
2022-11-05T13:39:37.650Z,9.00
2022-11-05T13:42:41.345Z,9.10
2022-11-05T13:45:35.524Z,9.10
2022-11-05T13:48:51.338Z,9.10
2022-11-05T13:51:58.157Z,9.10
2022-11-05T13:55:05.139Z,9.10
2022-11-05T13:58:20.923Z,9.10
2022-11-05T14:01:02.576Z,9.10
2022-11-05T14:03:31.598Z,9.10
2022-11-05T14:06:05.324Z,9.10
2022-11-05T14:08:41.141Z,9.10
2022-11-05T14:11:21.913Z,9.10
2022-11-05T14:13:58.898Z,9.10
2022-11-05T14:16:30.148Z,9.10
2022-11-05T14:19:30.290Z,9.10
2022-11-05T14:21:59.690Z,9.10
2022-11-05T14:24:44.323Z,9.10
2022-11-05T14:27:45.461Z,9.10
2022-11-05T14:30:44.925Z,9.10
2022-11-05T14:33:33.780Z,9.10
2022-11-05T14:36:31.399Z,9.00
2022-11-05T14:39:19.556Z,9.00
2022-11-05T14:42:03.971Z,9.00
2022-11-05T14:44:35.600Z,9.00
2022-11-05T14:47:08.925Z,9.00
2022-11-05T14:49:43.372Z,9.00
2022-11-05T14:52:32.554Z,9.00
2022-11-05T14:55:01.260Z,9.00
2022-11-05T14:58:21.865Z,9.00
2022-11-05T15:00:51.025Z,9.00
2022-11-05T15:07:30.837Z,9.00
2022-11-05T15:10:08.952Z,9.00
2022-11-05T15:12:42.980Z,9.00
2022-11-05T15:15:27.969Z,9.00
2022-11-05T15:18:08.259Z,9.00
2022-11-05T15:20:40.734Z,9.00
2022-11-05T15:23:17.694Z,9.00
2022-11-05T15:26:05.930Z,9.00
2022-11-05T15:28:39.010Z,9.00
2022-11-05T15:31:35.733Z,9.00
2022-11-05T15:34:22.042Z,9.00
2022-11-05T15:37:04.905Z,9.00
2022-11-05T15:39:39.527Z,9.00
2022-11-05T15:42:14.716Z,9.10
2022-11-05T15:44:46.051Z,9.10
2022-11-05T15:47:21.280Z,9.00
2022-11-05T15:49:54.939Z,9.00
2022-11-05T15:52:25.176Z,9.00
2022-11-05T15:55:15.723Z,9.00
2022-11-05T15:57:51.048Z,9.10
2022-11-05T16:00:22.831Z,9.00
2022-11-05T16:02:56.496Z,9.10
2022-11-05T16:05:26.857Z,9.10
2022-11-05T16:07:55.574Z,9.10
2022-11-05T16:10:33.748Z,9.10
2022-11-05T16:13:37.810Z,9.10
2022-11-05T16:16:26.513Z,9.10
2022-11-05T16:18:55.345Z,9.00
2022-11-05T16:21:26.193Z,9.10
2022-11-05T16:23:56.865Z,9.10
2022-11-05T16:27:01.351Z,9.10
2022-11-05T16:29:31.000Z,9.10
2022-11-05T16:32:03.360Z,9.10
2022-11-05T16:34:40.847Z,9.10
2022-11-05T16:37:13.734Z,9.10
2022-11-05T16:44:19.460Z,9.00
2022-11-05T16:47:19.832Z,9.10
2022-11-05T17:07:27.853Z,9.10
2022-11-05T17:22:33.429Z,9.10
2022-11-05T17:30:02.214Z,9.10
2022-11-05T17:44:05.518Z,9.10
2022-11-05T17:46:38.928Z,9.10
2022-11-05T17:58:05.841Z,9.20
2022-11-05T18:00:43.197Z,9.10
2022-11-05T18:03:19.051Z,9.30
2022-11-05T18:05:51.519Z,9.10
2022-11-05T18:08:20.041Z,9.10
2022-11-05T18:14:32.219Z,9.10
2022-11-05T18:19:59.660Z,9.00
2022-11-05T18:22:29.635Z,9.00
2022-11-05T18:24:58.134Z,9.00
2022-11-05T18:27:37.580Z,9.00
2022-11-05T18:30:31.806Z,9.00
2022-11-05T18:33:15.439Z,9.00
2022-11-05T18:35:57.266Z,9.00
2022-11-05T18:39:08.607Z,8.90
2022-11-05T18:41:39.257Z,8.90
2022-11-05T18:44:15.138Z,8.90
2022-11-05T18:47:01.658Z,8.90
2022-11-05T18:50:24.374Z,8.90
2022-11-05T18:53:19.304Z,8.80
2022-11-05T18:56:06.757Z,8.90
2022-11-05T18:58:35.856Z,8.80
2022-11-05T19:01:13.928Z,8.80
2022-11-05T19:03:43.437Z,8.90
2022-11-05T19:06:12.070Z,8.80
2022-11-05T19:08:40.549Z,8.80
2022-11-05T19:11:26.373Z,8.80
2022-11-05T19:13:54.992Z,8.80
2022-11-05T19:16:27.051Z,8.80
2022-11-05T19:18:59.383Z,8.80
2022-11-05T19:21:28.592Z,8.70
2022-11-05T19:24:00.166Z,8.80
2022-11-05T19:26:46.696Z,8.70
2022-11-05T19:29:15.134Z,8.70
2022-11-05T19:31:43.536Z,8.70
2022-11-05T19:34:13.344Z,8.70
2022-11-05T19:36:42.040Z,8.70
2022-11-05T19:39:15.981Z,8.70
2022-11-05T19:42:03.608Z,8.70
2022-11-05T19:44:32.490Z,8.80
2022-11-05T19:47:00.798Z,8.80
2022-11-05T19:49:29.295Z,8.70
2022-11-05T19:51:57.953Z,8.70
2022-11-05T19:54:26.479Z,8.70
2022-11-05T19:56:54.819Z,8.70
2022-11-05T19:59:24.528Z,8.70
2022-11-05T20:01:55.080Z,8.70
2022-11-05T20:04:23.780Z,8.70
2022-11-05T20:06:52.064Z,8.70
2022-11-05T20:09:22.649Z,8.70
2022-11-05T20:11:53.913Z,8.70
2022-11-05T20:14:22.287Z,8.80
2022-11-05T20:16:52.144Z,8.70
2022-11-05T20:19:22.977Z,8.80
2022-11-05T20:21:54.324Z,8.70
2022-11-05T20:24:25.242Z,8.80
2022-11-05T20:26:54.999Z,8.70
2022-11-05T20:29:27.814Z,8.70
2022-11-05T20:32:29.553Z,8.70
2022-11-05T20:35:14.428Z,8.70
2022-11-05T20:37:43.283Z,8.70
2022-11-05T20:40:14.891Z,8.70
2022-11-05T20:42:44.233Z,8.70
2022-11-05T20:45:12.876Z,8.70
2022-11-05T20:47:41.700Z,8.70
2022-11-05T20:50:11.080Z,8.70
2022-11-05T20:52:41.053Z,8.70
2022-11-05T20:55:10.440Z,8.70
2022-11-05T20:57:39.795Z,8.70
2022-11-05T21:00:10.623Z,8.60
2022-11-05T21:02:40.643Z,8.70
2022-11-05T21:05:09.664Z,8.70
2022-11-05T21:07:38.146Z,8.60
2022-11-05T21:10:08.654Z,8.70
2022-11-05T21:12:36.942Z,8.60
2022-11-05T21:15:25.319Z,8.70
2022-11-05T21:17:53.944Z,8.70
2022-11-05T21:20:22.724Z,8.60
2022-11-05T21:22:51.510Z,8.60
2022-11-05T21:25:21.455Z,8.70
2022-11-05T21:27:50.464Z,8.70
2022-11-05T21:30:19.078Z,8.60
2022-11-05T21:32:47.266Z,8.60
2022-11-05T21:35:15.925Z,8.60
2022-11-05T21:37:44.823Z,8.60
2022-11-05T21:40:13.506Z,8.60
2022-11-05T21:42:46.850Z,8.60
2022-11-05T21:45:18.598Z,8.60
2022-11-05T21:47:50.095Z,8.60
2022-11-05T21:50:21.873Z,8.60
2022-11-05T21:53:08.200Z,8.60
2022-11-05T21:55:54.259Z,8.60
2022-11-05T21:58:42.092Z,8.60
2022-11-05T22:01:10.642Z,8.60
2022-11-05T22:03:39.524Z,8.60
2022-11-05T22:06:08.173Z,8.60
2022-11-05T22:08:36.550Z,8.60
2022-11-05T22:11:05.124Z,8.50
2022-11-05T22:13:38.913Z,8.60
2022-11-05T22:16:08.119Z,8.50
2022-11-05T22:18:36.624Z,8.50
2022-11-05T22:21:05.160Z,8.50
2022-11-05T22:23:33.531Z,8.50
2022-11-05T22:26:02.297Z,8.50
2022-11-05T22:28:31.296Z,8.50
2022-11-05T22:31:00.933Z,8.50
2022-11-05T22:33:29.173Z,8.50
2022-11-05T22:35:58.354Z,8.50
2022-11-05T22:38:34.712Z,8.40
2022-11-05T22:41:08.696Z,8.40
2022-11-05T22:43:37.277Z,8.40
2022-11-05T22:46:09.501Z,8.40
2022-11-05T22:48:38.840Z,8.40
2022-11-05T22:51:11.485Z,8.40
2022-11-05T22:53:41.555Z,8.30
2022-11-05T22:56:11.962Z,8.30
2022-11-05T22:58:40.899Z,8.30
2022-11-05T23:01:15.668Z,8.30
2022-11-05T23:03:45.554Z,8.20
2022-11-05T23:06:31.237Z,8.10
2022-11-05T23:09:17.743Z,8.10
2022-11-05T23:11:49.672Z,8.10
2022-11-05T23:14:18.212Z,8.10
2022-11-05T23:17:05.250Z,8.10
2022-11-05T23:19:51.376Z,8.00
2022-11-05T23:22:39.175Z,8.00
2022-11-05T23:25:10.142Z,8.00
2022-11-05T23:27:58.393Z,8.00
2022-11-05T23:30:28.052Z,8.00
2022-11-05T23:32:56.688Z,7.90
2022-11-05T23:35:38.924Z,7.90
2022-11-05T23:38:24.505Z,7.90
2022-11-05T23:41:09.915Z,7.90
2022-11-05T23:43:55.878Z,7.80
2022-11-05T23:46:42.836Z,7.80
2022-11-05T23:49:12.464Z,7.70
2022-11-05T23:51:40.697Z,7.70
2022-11-05T23:54:09.343Z,7.70
2022-11-05T23:56:37.679Z,7.70
2022-11-05T23:59:06.430Z,7.60
